Kennebec, South Dakota
Current Conditions -  °F | °C
As of 4:15 AM on Thursday 18 Dec 2014 (Local Time) from K9V9 Reporting Station
Overcast Overcast  
Wind Chill: 10°   Ceiling: 1000
Heat Index: 19°   Visibility: 10mi
Dew Point: 17°   Wind: 7mph
Humidity: 90%   Direction: 140°SE
Pressure: 30.15"   Gusts: NA
Location:  43.9°N, 99.86°W
Report Text: K9V9 181015Z AUTO 14006KT 10SM BKN010 OVC017 M07/M09 A3015 RMK AO2 T10721086
Loading
Personal Weather Stations






























Interactive Weather Map New forecast layout! Learn more

10-Day Weather Forecast

Advertisements
Track Severe Weather on mobile